Time;durP1;ratioP1;P1;durP2;ratioP2;P2;SDS_P1;SDS_P2;PMS_P1;PMS_P2;Temp;Humidity;BMP_temperature;BMP_pressure;BME280_temperature;BME280_humidity;BME280_pressure;Samples;Min_cycle;Max_cycle;Signal;HPM_P1;HPM_P2
2021/12/11 00:02:06;;;;;;;;;;;;;;;-0.25;83.26;99785.75;5016458;28;20073;-78
2021/12/11 00:04:33;;;;;;;;;;;;;;;-0.36;82.97;99791.59;5006954;28;20322;-77
2021/12/11 00:07:00;;;;;;;;;;;;;;;-0.46;83.55;99783.50;5013278;28;19904;-78
2021/12/11 00:09:33;;;;;;;;;;;;;;;-0.45;83.74;99790.38;5007976;28;20364;-75
2021/12/11 00:12:00;;;;;;;;;;;;;;;-0.45;83.37;99792.97;5011981;28;19982;-77
2021/12/11 00:14:27;;;;;;;;;;;;;;;-0.51;83.85;99790.72;5009022;28;20183;-76
2021/12/11 00:16:52;;;;;;;;;;;;;;;-0.40;83.87;99809.13;5001991;28;20273;-76
2021/12/11 00:19:25;;;;;;;;;;;;;;;-0.42;84.12;99804.97;5007817;28;20322;-78
2021/12/11 00:21:50;;;;;;;;;;;;;;;-0.43;83.84;99804.09;4993643;28;19900;-78
2021/12/11 00:24:17;;;;;;;;;;;;;;;-0.36;83.54;99826.19;5010598;27;19934;-75
2021/12/11 00:26:43;;;;;;;;;;;;;;;-0.32;83.93;99831.22;5015418;28;20110;-78
2021/12/11 00:29:09;;;;;;;;;;;;;;;-0.31;83.97;99832.91;5011375;28;20376;-76
2021/12/11 00:31:35;;;;;;;;;;;;;;;-0.27;84.11;99842.19;5010280;27;20245;-78
2021/12/11 00:34:00;;;;;;;;;;;;;;;-0.22;84.32;99843.59;4998704;28;20002;-76
2021/12/11 00:36:31;;;;;;;;;;;;;;;-0.16;84.26;99846.78;5006139;28;20402;-77
2021/12/11 00:39:00;;;;;;;;;;;;;;;-0.12;84.33;99849.09;4991832;28;19904;-76
2021/12/11 00:41:25;;;;;;;;;;;;;;;-0.07;84.44;99859.22;5007549;28;19985;-75
2021/12/11 00:43:50;;;;;;;;;;;;;;;-0.04;84.50;99861.66;4985732;28;20405;-76
2021/12/11 00:46:17;;;;;;;;;;;;;;;-0.05;84.79;99867.78;5003777;27;19923;-76
2021/12/11 00:48:42;;;;;;;;;;;;;;;0.05;85.04;99876.69;4978614;28;19912;-77
2021/12/11 00:51:15;;;;;;;;;;;;;;;0.06;85.16;99877.56;4969627;28;20382;-76
2021/12/11 00:53:46;;;;;;;;;;;;;;;0.11;84.76;99883.31;4986121;28;20158;-76
2021/12/11 00:56:13;;;;;;;;;;;;;;;0.17;85.24;99885.56;4979291;28;20230;-76
2021/12/11 00:58:39;;;;;;;;;;;;;;;0.23;85.37;99887.78;4987536;28;19904;-76
2021/12/11 01:01:07;;;;;;;;;;;;;;;0.30;85.38;99896.88;4988392;27;20604;-76
2021/12/11 01:03:42;;;;;;;;;;;;;;;0.33;85.29;99901.09;5003324;28;20336;-75
2021/12/11 01:06:12;;;;;;;;;;;;;;;0.36;85.34;99903.50;5006908;28;19964;-76
2021/12/11 01:08:39;;;;;;;;;;;;;;;0.46;85.32;99911.59;4972517;28;19915;-76
2021/12/11 01:11:07;;;;;;;;;;;;;;;0.46;85.39;99922.00;4989161;28;19903;-77
2021/12/11 01:13:33;;;;;;;;;;;;;;;0.55;85.34;99921.47;4971347;28;19967;-76
2021/12/11 01:16:04;;;;;;;;;;;;;;;0.55;85.48;99933.63;4965340;28;20751;-76
2021/12/11 01:18:37;;;;;;;;;;;;;;;0.57;85.61;99947.38;5000051;28;19952;-76
2021/12/11 01:21:13;;;;;;;;;;;;;;;0.63;85.62;99958.25;4983924;28;19911;-77
2021/12/11 01:26:06;;;;;;;;;;;;;;;0.70;85.52;99970.91;5008363;27;19911;-77
2021/12/11 01:28:32;;;;;;;;;;;;;;;0.76;85.58;99970.53;4988207;27;20289;-76
2021/12/11 01:30:57;;;;;;;;;;;;;;;0.78;85.28;99985.16;4989266;27;19988;-76
2021/12/11 01:33:22;;;;;;;;;;;;;;;0.83;85.56;99988.31;5027527;27;20187;-76
2021/12/11 01:35:48;;;;;;;;;;;;;;;0.86;85.48;99992.47;4989555;27;19907;-75
2021/12/11 01:38:14;;;;;;;;;;;;;;;0.89;85.58;100001.88;4991327;27;19910;-76
2021/12/11 01:40:40;;;;;;;;;;;;;;;0.87;85.68;100015.00;5008558;27;19910;-77
2021/12/11 01:43:05;;;;;;;;;;;;;;;0.98;86.33;100016.97;4995566;28;19904;-76
2021/12/11 01:45:31;;;;;;;;;;;;;;;1.13;87.58;100020.38;4986586;28;19923;-76
2021/12/11 01:47:56;;;;;;;;;;;;;;;1.33;87.84;100027.00;4988072;28;20238;-75
2021/12/11 01:50:21;;;;;;;;;;;;;;;1.43;87.69;100035.06;4970767;28;19919;-76
2021/12/11 01:52:58;;;;;;;;;;;;;;;1.54;88.20;100045.66;5007639;28;19938;-76
2021/12/11 01:55:26;;;;;;;;;;;;;;;1.62;87.66;100046.03;4987262;28;20163;-76
2021/12/11 01:57:52;;;;;;;;;;;;;;;1.69;88.04;100052.53;5006314;28;19919;-77
2021/12/11 02:00:20;;;;;;;;;;;;;;;1.72;87.60;100061.91;4982668;28;20032;-76
2021/12/11 02:02:46;;;;;;;;;;;;;;;1.77;87.52;100061.63;5007297;28;19904;-76
2021/12/11 02:05:12;;;;;;;;;;;;;;;1.85;87.56;100068.03;4990326;28;19915;-77
2021/12/11 02:07:38;;;;;;;;;;;;;;;1.87;87.39;100073.97;4988560;28;20309;-76
2021/12/11 02:10:10;;;;;;;;;;;;;;;1.99;87.23;100082.81;4986727;28;20210;-76
2021/12/11 02:12:38;;;;;;;;;;;;;;;1.99;87.16;100087.19;4982520;28;20101;-76
2021/12/11 02:15:14;;;;;;;;;;;;;;;1.93;86.87;100091.00;5001928;28;19908;-77
2021/12/11 02:17:45;;;;;;;;;;;;;;;1.93;87.58;100098.03;4996560;28;19957;-76
2021/12/11 02:20:13;;;;;;;;;;;;;;;1.82;86.84;100101.28;4986259;28;20033;-76
2021/12/11 02:22:41;;;;;;;;;;;;;;;1.76;87.20;100101.69;4986113;28;20063;-76
2021/12/11 02:25:08;;;;;;;;;;;;;;;1.87;87.38;100099.25;4950572;28;20087;-76
2021/12/11 02:27:34;;;;;;;;;;;;;;;1.86;87.39;100110.59;4968161;28;20008;-77
2021/12/11 02:30:20;;;;;;;;;;;;;;;1.79;87.48;100118.00;4959924;28;20112;-75
2021/12/11 02:33:03;;;;;;;;;;;;;;;1.78;87.54;100121.53;4986982;28;20732;-75
2021/12/11 02:35:34;;;;;;;;;;;;;;;1.73;87.49;100133.19;5004346;28;20692;-76
2021/12/11 02:38:05;;;;;;;;;;;;;;;1.64;87.66;100130.22;4987017;28;20074;-76
2021/12/11 02:40:35;;;;;;;;;;;;;;;1.71;87.77;100141.94;4966937;28;19915;-77
2021/12/11 02:43:09;;;;;;;;;;;;;;;1.73;86.87;100147.06;4951334;28;20020;-77
2021/12/11 02:45:37;;;;;;;;;;;;;;;1.69;87.20;100149.03;4960936;28;19924;-76
2021/12/11 02:48:07;;;;;;;;;;;;;;;1.65;86.96;100150.16;5003965;28;20424;-76
2021/12/11 02:50:43;;;;;;;;;;;;;;;1.67;87.35;100155.28;4983484;28;20356;-75
2021/12/11 02:53:08;;;;;;;;;;;;;;;1.76;86.47;100159.06;4984176;28;20005;-77
2021/12/11 02:55:35;;;;;;;;;;;;;;;1.75;86.50;100160.84;4980158;28;20274;-77
2021/12/11 02:58:03;;;;;;;;;;;;;;;1.70;86.44;100166.34;5001449;27;20348;-77
2021/12/11 03:00:33;;;;;;;;;;;;;;;1.63;86.67;100165.03;5000796;28;19904;-78
2021/12/11 03:03:03;;;;;;;;;;;;;;;1.58;87.48;100167.09;4979861;28;20016;-79
2021/12/11 03:05:37;;;;;;;;;;;;;;;1.58;87.30;100164.50;4994019;28;19960;-77
2021/12/11 03:08:05;;;;;;;;;;;;;;;1.56;87.92;100174.16;4991659;28;20021;-78
2021/12/11 03:10:30;;;;;;;;;;;;;;;1.50;87.95;100177.16;4993769;28;20052;-78
2021/12/11 03:12:56;;;;;;;;;;;;;;;1.54;88.36;100181.25;4994049;28;19920;-78
2021/12/11 03:15:21;;;;;;;;;;;;;;;1.47;88.50;100177.34;4996084;27;19912;-79
2021/12/11 03:17:46;;;;;;;;;;;;;;;1.52;88.66;100183.09;4996337;28;20739;-78
2021/12/11 03:20:13;;;;;;;;;;;;;;;1.59;88.31;100191.41;4990702;27;20617;-75
2021/12/11 03:22:38;;;;;;;;;;;;;;;1.50;88.51;100195.41;4993997;28;20174;-77
2021/12/11 03:25:04;;;;;;;;;;;;;;;1.64;88.76;100200.63;5015304;28;19904;-77
2021/12/11 03:27:30;;;;;;;;;;;;;;;1.67;88.51;100205.66;4999402;28;19948;-78
2021/12/11 03:29:55;;;;;;;;;;;;;;;1.74;88.29;100213.13;4998366;28;20592;-78
2021/12/11 03:32:20;;;;;;;;;;;;;;;1.75;88.52;100214.78;4997530;28;20320;-78
2021/12/11 03:34:45;;;;;;;;;;;;;;;1.83;87.91;100217.75;4996490;28;20414;-77
2021/12/11 03:37:11;;;;;;;;;;;;;;;1.74;87.88;100227.00;4995092;28;20044;-77
2021/12/11 03:39:40;;;;;;;;;;;;;;;1.75;88.04;100225.22;4995766;28;20290;-77
2021/12/11 03:42:07;;;;;;;;;;;;;;;1.79;87.85;100227.56;5010299;28;20313;-77
2021/12/11 03:44:33;;;;;;;;;;;;;;;1.82;87.89;100231.72;4993805;27;19912;-75
2021/12/11 03:46:59;;;;;;;;;;;;;;;1.78;87.59;100240.69;5008796;27;19907;-78
2021/12/11 03:49:24;;;;;;;;;;;;;;;1.77;87.63;100244.22;5039949;27;20198;-78
2021/12/11 03:51:50;;;;;;;;;;;;;;;1.76;87.92;100247.75;5019064;27;20193;-77
2021/12/11 03:54:17;;;;;;;;;;;;;;;1.82;87.78;100247.38;5014437;27;20369;-77
2021/12/11 03:56:42;;;;;;;;;;;;;;;1.88;87.68;100250.47;5001874;28;19921;-77
2021/12/11 03:59:10;;;;;;;;;;;;;;;1.96;87.58;100252.63;5015679;27;20432;-79
2021/12/11 04:01:37;;;;;;;;;;;;;;;1.88;87.41;100249.63;5011613;27;20300;-77
2021/12/11 04:04:07;;;;;;;;;;;;;;;1.87;87.60;100253.16;4999662;28;20321;-77
2021/12/11 04:06:32;;;;;;;;;;;;;;;1.91;87.62;100261.66;5007473;27;20769;-78
2021/12/11 04:08:59;;;;;;;;;;;;;;;1.92;87.52;100264.19;5013146;27;20135;-77
2021/12/11 04:11:25;;;;;;;;;;;;;;;1.87;87.84;100261.00;5016210;27;19908;-78
2021/12/11 04:13:52;;;;;;;;;;;;;;;1.83;87.52;100276.03;5034480;27;20506;-77
2021/12/11 04:16:18;;;;;;;;;;;;;;;1.90;87.51;100281.69;4996089;27;19927;-77
2021/12/11 04:18:43;;;;;;;;;;;;;;;1.99;87.30;100282.88;5014984;27;20139;-77
2021/12/11 04:21:09;;;;;;;;;;;;;;;1.93;87.11;100293.72;5014351;27;20539;-78
2021/12/11 04:23:34;;;;;;;;;;;;;;;1.86;87.14;100293.22;5013512;27;20135;-76
2021/12/11 04:25:59;;;;;;;;;;;;;;;1.92;87.55;100305.06;5012329;27;20178;-77
2021/12/11 04:28:25;;;;;;;;;;;;;;;1.85;87.80;100299.41;5011114;27;20255;-76
2021/12/11 04:30:51;;;;;;;;;;;;;;;1.87;87.31;100303.56;4993159;27;20284;-76
2021/12/11 04:33:17;;;;;;;;;;;;;;;1.88;87.23;100309.66;5010739;27;19968;-76
2021/12/11 04:35:43;;;;;;;;;;;;;;;1.87;87.07;100319.22;5011510;27;20563;-76
2021/12/11 04:38:09;;;;;;;;;;;;;;;1.82;87.13;100317.81;5010575;27;20201;-76
2021/12/11 04:40:37;;;;;;;;;;;;;;;1.92;87.52;100316.38;5008141;27;20250;-77
2021/12/11 04:43:07;;;;;;;;;;;;;;;1.93;87.34;100323.25;4984712;27;19929;-77
2021/12/11 04:45:35;;;;;;;;;;;;;;;1.89;87.19;100322.59;4994999;27;20149;-76
2021/12/11 04:48:19;;;;;;;;;;;;;;;1.84;87.31;100324.63;4993740;28;19908;-76
2021/12/11 04:51:00;;;;;;;;;;;;;;;1.82;87.45;100330.88;4977577;28;20218;-77
2021/12/11 04:54:30;;;;;;;;;;;;;;;1.91;87.62;100335.56;4995278;28;19960;-76
2021/12/11 05:06:52;;;;;;;;;;;;;;;2.08;87.36;100346.75;5010488;27;20386;-76
2021/12/11 05:12:09;;;;;;;;;;;;;;;2.08;87.07;100355.41;5006461;27;20466;-76
2021/12/11 05:14:32;;;;;;;;;;;;;;;2.02;87.20;100354.03;5010068;27;19911;-76
2021/12/11 05:16:58;;;;;;;;;;;;;;;2.05;86.88;100366.88;5007278;27;19923;-77
2021/12/11 05:19:23;;;;;;;;;;;;;;;2.06;87.17;100372.97;5023054;27;19907;-76
2021/12/11 05:21:48;;;;;;;;;;;;;;;2.05;86.91;100374.72;5028934;27;20085;-78
2021/12/11 05:24:15;;;;;;;;;;;;;;;2.06;87.36;100383.41;5021994;27;20191;-76
2021/12/11 05:26:41;;;;;;;;;;;;;;;2.04;87.15;100387.84;5027391;27;20198;-75
2021/12/11 05:29:06;;;;;;;;;;;;;;;2.08;87.17;100388.53;5010011;27;20027;-76
2021/12/11 05:31:31;;;;;;;;;;;;;;;2.01;87.30;100396.69;5026589;27;19899;-76
2021/12/11 05:33:56;;;;;;;;;;;;;;;2.06;87.67;100397.28;5029365;27;20317;-77
2021/12/11 05:36:22;;;;;;;;;;;;;;;2.06;87.62;100392.06;5026741;27;20250;-77
2021/12/11 05:38:48;;;;;;;;;;;;;;;2.09;87.35;100393.66;5010071;27;20270;-76
2021/12/11 05:41:13;;;;;;;;;;;;;;;2.14;87.26;100403.81;5008944;27;20879;-76
2021/12/11 05:43:39;;;;;;;;;;;;;;;2.13;87.21;100415.16;5013152;27;19907;-76
2021/12/11 05:46:05;;;;;;;;;;;;;;;2.14;87.33;100415.06;4985245;28;19973;-77
2021/12/11 05:48:30;;;;;;;;;;;;;;;2.07;87.31;100416.38;5022845;27;19934;-77
2021/12/11 05:50:56;;;;;;;;;;;;;;;2.23;87.23;100422.38;5006770;27;20937;-76
2021/12/11 05:53:21;;;;;;;;;;;;;;;2.33;86.81;100432.28;5006847;27;20492;-76
2021/12/11 05:55:48;;;;;;;;;;;;;;;2.34;86.35;100437.41;4988122;27;20893;-75
2021/12/11 05:58:22;;;;;;;;;;;;;;;2.50;86.41;100445.16;4990526;27;19927;-76
2021/12/11 06:00:47;;;;;;;;;;;;;;;2.40;86.29;100450.09;5002505;27;20158;-76
2021/12/11 06:03:13;;;;;;;;;;;;;;;2.30;86.44;100448.97;4952969;28;20174;-76
2021/12/11 06:05:38;;;;;;;;;;;;;;;2.32;86.29;100457.53;4970709;28;20642;-76
2021/12/11 06:08:04;;;;;;;;;;;;;;;2.22;86.48;100459.84;4985426;28;19904;-76
2021/12/11 06:10:29;;;;;;;;;;;;;;;2.21;86.67;100468.63;4968458;28;19908;-75
2021/12/11 06:12:55;;;;;;;;;;;;;;;2.31;86.92;100471.50;4975214;28;19905;-76
2021/12/11 06:15:20;;;;;;;;;;;;;;;2.34;87.05;100473.97;4988176;28;19930;-77
2021/12/11 06:17:46;;;;;;;;;;;;;;;2.33;86.96;100477.50;4988035;28;20296;-75
2021/12/11 06:20:12;;;;;;;;;;;;;;;2.34;86.87;100488.78;4970796;28;20236;-76
2021/12/11 06:22:37;;;;;;;;;;;;;;;2.30;87.17;100488.13;4987921;28;20227;-76
2021/12/11 06:25:10;;;;;;;;;;;;;;;2.35;86.81;100491.28;4973203;28;19912;-76
2021/12/11 06:27:36;;;;;;;;;;;;;;;2.36;86.41;100489.53;4986143;28;19904;-77
2021/12/11 06:30:01;;;;;;;;;;;;;;;2.40;86.39;100489.25;5006710;28;20314;-77
2021/12/11 06:32:26;;;;;;;;;;;;;;;2.48;85.55;100494.06;4969307;28;20493;-76
2021/12/11 06:34:52;;;;;;;;;;;;;;;2.48;85.37;100501.88;4992267;27;20192;-76
2021/12/11 06:37:20;;;;;;;;;;;;;;;2.54;85.19;100505.91;5005165;27;20453;-77
2021/12/11 06:39:45;;;;;;;;;;;;;;;2.61;85.01;100512.44;5010324;27;20219;-79
2021/12/11 06:42:10;;;;;;;;;;;;;;;2.63;85.06;100513.19;4989585;28;20424;-79
2021/12/11 06:44:36;;;;;;;;;;;;;;;2.64;84.93;100519.25;4969925;28;20076;-79
2021/12/11 06:47:02;;;;;;;;;;;;;;;2.63;85.04;100521.00;4985142;28;20316;-80
2021/12/11 06:49:28;;;;;;;;;;;;;;;2.58;84.26;100521.28;4956194;28;19933;-79
2021/12/11 06:51:53;;;;;;;;;;;;;;;2.59;84.64;100532.56;4974393;28;20024;-75
2021/12/11 06:54:18;;;;;;;;;;;;;;;2.57;85.31;100544.91;4978632;28;20001;-75
2021/12/11 06:56:44;;;;;;;;;;;;;;;2.56;85.97;100551.88;4965479;28;20206;-77
2021/12/11 06:59:09;;;;;;;;;;;;;;;2.54;86.15;100552.91;4966573;28;20330;-77
2021/12/11 07:01:35;;;;;;;;;;;;;;;2.51;86.26;100558.28;4949270;28;20409;-76
2021/12/11 07:04:00;;;;;;;;;;;;;;;2.51;86.50;100564.38;4964763;28;19935;-75
2021/12/11 07:06:25;;;;;;;;;;;;;;;2.49;86.67;100561.00;4946674;28;20338;-78
2021/12/11 07:08:52;;;;;;;;;;;;;;;3.37;89.07;100563.63;4961369;28;19900;-78
2021/12/11 07:11:18;;;;;;;;;;;;;;;3.15;84.99;100566.69;4973803;28;20309;-80
2021/12/11 07:13:43;;;;;;;;;;;;;;;2.98;84.19;100583.41;4975219;28;20868;-79
2021/12/11 07:16:08;;;;;;;;;;;;;;;2.80;84.62;100581.88;4963409;28;20040;-78
2021/12/11 07:18:34;;;;;;;;;;;;;;;2.71;85.29;100585.88;4970896;28;19918;-77
2021/12/11 07:20:59;;;;;;;;;;;;;;;2.65;85.87;100588.84;4981315;28;20085;-77
2021/12/11 07:23:24;;;;;;;;;;;;;;;2.71;86.01;100585.88;4967729;28;19909;-77
2021/12/11 07:25:51;;;;;;;;;;;;;;;2.72;85.72;100598.84;4981340;28;20009;-78
2021/12/11 07:28:16;;;;;;;;;;;;;;;2.65;85.93;100601.91;4983845;28;20816;-78
2021/12/11 07:30:42;;;;;;;;;;;;;;;2.58;86.04;100617.09;4982863;28;20023;-78
2021/12/11 07:33:07;;;;;;;;;;;;;;;2.58;86.52;100622.31;4980551;28;20114;-77
2021/12/11 07:35:33;;;;;;;;;;;;;;;2.55;86.46;100625.09;4986867;28;19934;-78
2021/12/11 07:37:58;;;;;;;;;;;;;;;2.72;85.40;100625.00;4985922;28;20026;-78
2021/12/11 07:40:25;;;;;;;;;;;;;;;2.79;84.88;100624.63;4970438;28;19957;-78
2021/12/11 07:42:51;;;;;;;;;;;;;;;2.73;85.53;100637.09;4984331;28;20143;-78
2021/12/11 07:45:16;;;;;;;;;;;;;;;2.65;86.08;100636.72;4964104;28;20099;-78
2021/12/11 07:47:41;;;;;;;;;;;;;;;2.60;86.72;100633.53;4984072;28;20597;-77
2021/12/11 07:50:07;;;;;;;;;;;;;;;2.65;86.73;100644.56;4983513;28;19927;-78
2021/12/11 07:52:32;;;;;;;;;;;;;;;2.68;86.75;100648.75;4983515;28;19908;-79
2021/12/11 07:54:58;;;;;;;;;;;;;;;2.72;86.82;100645.91;4985757;28;20243;-78
2021/12/11 07:57:23;;;;;;;;;;;;;;;2.84;86.44;100649.56;4970343;28;20467;-78
2021/12/11 07:59:48;;;;;;;;;;;;;;;2.95;85.67;100663.75;4978869;28;19941;-78
2021/12/11 08:02:13;;;;;;;;;;;;;;;2.86;85.76;100672.97;4984712;28;19945;-78
2021/12/11 08:04:38;;;;;;;;;;;;;;;2.86;86.14;100675.59;4983590;28;20249;-76
2021/12/11 08:07:04;;;;;;;;;;;;;;;2.84;86.43;100665.22;4989391;28;19917;-78
2021/12/11 08:09:29;;;;;;;;;;;;;;;2.87;86.33;100675.50;4987082;28;19908;-78
2021/12/11 08:11:54;;;;;;;;;;;;;;;2.87;85.93;100665.06;4990619;28;20436;-78
2021/12/11 08:14:19;;;;;;;;;;;;;;;2.84;85.98;100685.31;4967698;28;20263;-76
2021/12/11 08:16:49;;;;;;;;;;;;;;;2.96;86.02;100684.59;4982452;28;20232;-77
2021/12/11 08:19:18;;;;;;;;;;;;;;;2.91;85.31;100691.88;4999816;28;20173;-77
2021/12/11 08:21:45;;;;;;;;;;;;;;;2.92;85.25;100694.38;4981000;28;19946;-78
2021/12/11 08:24:10;;;;;;;;;;;;;;;2.99;85.04;100694.00;4997540;28;20086;-77
2021/12/11 08:26:35;;;;;;;;;;;;;;;2.96;84.47;100694.19;4972348;28;20118;-77
2021/12/11 08:29:01;;;;;;;;;;;;;;;2.92;84.67;100699.63;4967160;28;20307;-76
2021/12/11 08:31:26;;;;;;;;;;;;;;;2.92;84.76;100706.63;4967161;28;20282;-76
2021/12/11 08:33:53;;;;;;;;;;;;;;;2.88;85.10;100705.13;4978594;28;20274;-79
2021/12/11 08:36:18;;;;;;;;;;;;;;;2.87;84.97;100712.09;4979471;28;20204;-79
2021/12/11 08:38:43;;;;;;;;;;;;;;;2.99;84.92;100721.03;4995339;28;20286;-78
2021/12/11 08:41:09;;;;;;;;;;;;;;;2.96;84.84;100710.75;4989394;28;20398;-77
2021/12/11 08:43:34;;;;;;;;;;;;;;;2.99;84.90;100721.03;4981261;28;20338;-77
2021/12/11 08:46:12;;;;;;;;;;;;;;;3.06;85.01;100735.41;4989662;28;19916;-77
2021/12/11 08:48:38;;;;;;;;;;;;;;;3.04;84.56;100732.03;5006349;27;20222;-77
2021/12/11 08:51:12;;;;;;;;;;;;;;;3.15;84.84;100743.66;5005114;27;19919;-77
2021/12/11 08:53:37;;;;;;;;;;;;;;;3.18;85.01;100738.25;5007907;27;21235;-77
2021/12/11 08:56:02;;;;;;;;;;;;;;;3.17;84.90;100750.47;4982447;28;20325;-77
2021/12/11 08:58:28;;;;;;;;;;;;;;;3.12;85.03;100752.53;4967454;28;20338;-77
2021/12/11 09:00:59;;;;;;;;;;;;;;;3.28;84.67;100754.25;4981396;28;20284;-77
2021/12/11 09:03:26;;;;;;;;;;;;;;;3.30;84.87;100754.97;4980062;28;19904;-77
2021/12/11 09:05:52;;;;;;;;;;;;;;;3.29;85.15;100751.53;4967796;28;20358;-77
2021/12/11 09:08:19;;;;;;;;;;;;;;;3.30;85.24;100755.84;4970837;28;20635;-77
2021/12/11 09:10:44;;;;;;;;;;;;;;;3.30;85.28;100763.69;4964649;28;19908;-77
2021/12/11 09:13:14;;;;;;;;;;;;;;;3.36;85.40;100765.09;5004835;27;20135;-77
2021/12/11 09:15:42;;;;;;;;;;;;;;;3.32;84.33;100764.44;4984851;27;19912;-79
2021/12/11 09:18:09;;;;;;;;;;;;;;;3.29;85.13;100762.00;5000087;27;20043;-76
2021/12/11 09:20:37;;;;;;;;;;;;;;;3.19;85.24;100763.47;4983291;27;19913;-76
2021/12/11 09:23:29;;;;;;;;;;;;;;;3.20;85.75;100765.13;4968862;28;20697;-77
2021/12/11 09:25:57;;;;;;;;;;;;;;;3.15;85.63;100775.03;4981657;28;20157;-77
2021/12/11 09:28:23;;;;;;;;;;;;;;;3.17;85.99;100775.78;4998590;28;20557;-77
2021/12/11 09:30:52;;;;;;;;;;;;;;;3.16;86.48;100780.19;4995497;28;19908;-76
2021/12/11 09:33:21;;;;;;;;;;;;;;;3.15;86.79;100788.13;4976672;28;19900;-76
2021/12/11 09:35:51;;;;;;;;;;;;;;;3.21;86.71;100788.59;4970589;28;20237;-76
2021/12/11 09:38:19;;;;;;;;;;;;;;;3.21;86.71;100787.75;4977237;28;20704;-77
2021/12/11 09:40:46;;;;;;;;;;;;;;;3.23;87.19;100796.38;4970708;28;19908;-76
2021/12/11 09:43:24;;;;;;;;;;;;;;;3.19;86.69;100800.09;4979017;28;20127;-79
2021/12/11 09:45:49;;;;;;;;;;;;;;;3.26;86.88;100801.41;4987909;27;19930;-78
2021/12/11 09:48:17;;;;;;;;;;;;;;;3.19;87.45;100800.09;5019383;27;20214;-78
2021/12/11 09:50:49;;;;;;;;;;;;;;;3.22;87.69;100803.34;4995081;28;20223;-79
2021/12/11 09:53:14;;;;;;;;;;;;;;;3.23;87.60;100805.03;4999698;27;20008;-78
2021/12/11 09:55:40;;;;;;;;;;;;;;;3.28;87.69;100803.94;5003240;27;19934;-80
2021/12/11 09:58:09;;;;;;;;;;;;;;;3.24;88.11;100805.88;4987196;27;20126;-79
2021/12/11 10:00:39;;;;;;;;;;;;;;;3.23;88.27;100806.81;5013990;27;20324;-78
2021/12/11 10:03:05;;;;;;;;;;;;;;;3.26;88.97;100812.72;5000317;27;20000;-78
2021/12/11 10:05:44;;;;;;;;;;;;;;;3.26;88.80;100817.09;5000275;27;19961;-79
2021/12/11 10:08:27;;;;;;;;;;;;;;;3.16;89.18;100808.94;4987516;28;20663;-79
2021/12/11 10:11:19;;;;;;;;;;;;;;;3.17;89.84;100808.00;4981079;28;20233;-79
2021/12/11 10:13:46;;;;;;;;;;;;;;;3.14;90.00;100809.94;5010185;28;20234;-78
2021/12/11 10:16:11;;;;;;;;;;;;;;;3.11;89.93;100825.81;5011598;27;20328;-79
2021/12/11 10:18:37;;;;;;;;;;;;;;;3.18;90.05;100819.31;4999963;27;20757;-77
2021/12/11 10:21:10;;;;;;;;;;;;;;;3.20;90.00;100817.44;4997268;27;20398;-77
2021/12/11 10:23:36;;;;;;;;;;;;;;;3.24;90.20;100813.72;5021240;27;19976;-77
2021/12/11 10:26:03;;;;;;;;;;;;;;;3.18;89.88;100821.94;4980597;27;19912;-77
2021/12/11 10:28:29;;;;;;;;;;;;;;;3.24;90.22;100821.56;5004033;27;20043;-77
2021/12/11 10:30:59;;;;;;;;;;;;;;;3.23;90.28;100825.13;4989798;28;19911;-77
2021/12/11 10:33:26;;;;;;;;;;;;;;;3.16;90.01;100832.47;4964788;28;20407;-78
2021/12/11 10:35:52;;;;;;;;;;;;;;;3.23;90.27;100828.56;4968722;27;20635;-76
2021/12/11 10:38:17;;;;;;;;;;;;;;;3.23;89.94;100840.81;4973389;27;19983;-76
2021/12/11 10:40:46;;;;;;;;;;;;;;;3.19;89.98;100828.84;5002289;27;20075;-76
2021/12/11 10:43:17;;;;;;;;;;;;;;;3.11;90.53;100834.50;4966070;28;20301;-79
2021/12/11 10:45:42;;;;;;;;;;;;;;;3.07;90.71;100833.84;4955986;28;19951;-77
2021/12/11 10:48:09;;;;;;;;;;;;;;;3.05;91.24;100834.84;4931881;28;20309;-77
2021/12/11 10:50:42;;;;;;;;;;;;;;;3.12;91.47;100840.56;4935622;27;20580;-77
2021/12/11 10:53:08;;;;;;;;;;;;;;;3.14;90.65;100838.72;4981731;27;20347;-80
2021/12/11 10:55:33;;;;;;;;;;;;;;;3.08;90.57;100840.72;4978088;27;20923;-80
2021/12/11 10:57:59;;;;;;;;;;;;;;;3.15;90.87;100846.47;4974713;27;20381;-78
2021/12/11 11:00:32;;;;;;;;;;;;;;;3.18;90.89;100850.69;4973093;27;19915;-78
2021/12/11 11:02:57;;;;;;;;;;;;;;;3.12;91.19;100853.63;4980032;27;20395;-77
2021/12/11 11:05:23;;;;;;;;;;;;;;;3.14;91.41;100854.41;4982172;27;20397;-77
2021/12/11 11:07:48;;;;;;;;;;;;;;;3.18;90.91;100853.31;4979976;27;20257;-79
2021/12/11 11:10:16;;;;;;;;;;;;;;;3.35;91.27;100853.19;4973925;27;20206;-77
2021/12/11 11:12:41;;;;;;;;;;;;;;;3.32;90.70;100858.59;4951949;27;20268;-77
2021/12/11 11:15:06;;;;;;;;;;;;;;;3.27;90.74;100844.91;4975982;27;20688;-77
2021/12/11 11:17:32;;;;;;;;;;;;;;;3.22;91.09;100846.97;4954063;27;20100;-78
2021/12/11 11:19:57;;;;;;;;;;;;;;;3.28;91.16;100846.63;4969983;27;19975;-78
2021/12/11 11:22:32;;;;;;;;;;;;;;;3.31;91.46;100846.44;4966919;28;20287;-82
2021/12/11 11:25:04;;;;;;;;;;;;;;;3.32;91.20;100853.34;5001459;28;19920;-80
2021/12/11 11:27:29;;;;;;;;;;;;;;;3.28;91.68;100857.06;4954018;28;20578;-77
2021/12/11 11:29:54;;;;;;;;;;;;;;;3.25;91.59;100862.47;4963908;28;20249;-79
2021/12/11 11:32:28;;;;;;;;;;;;;;;3.36;91.53;100875.78;4991076;27;19908;-79
2021/12/11 11:34:53;;;;;;;;;;;;;;;3.36;92.18;100878.41;5001239;27;20891;-79
2021/12/11 11:37:19;;;;;;;;;;;;;;;3.46;91.76;100880.53;4990485;27;19919;-79
2021/12/11 11:39:45;;;;;;;;;;;;;;;3.43;91.63;100881.53;4978173;27;19942;-78
2021/12/11 11:42:11;;;;;;;;;;;;;;;3.54;91.38;100884.38;4974491;27;19911;-78
2021/12/11 11:44:36;;;;;;;;;;;;;;;3.59;91.06;100889.34;4963507;27;20403;-79
2021/12/11 11:47:02;;;;;;;;;;;;;;;3.67;91.01;100888.91;4954559;27;20045;-78
2021/12/11 11:49:28;;;;;;;;;;;;;;;3.67;91.07;100878.44;4966732;28;19900;-77
2021/12/11 11:51:54;;;;;;;;;;;;;;;3.61;90.84;100879.63;4981513;28;20781;-78
2021/12/11 11:54:20;;;;;;;;;;;;;;;3.53;90.69;100890.53;4963864;28;19913;-78
2021/12/11 11:56:51;;;;;;;;;;;;;;;3.55;90.78;100893.91;4975476;28;20703;-77
2021/12/11 11:59:16;;;;;;;;;;;;;;;3.53;91.13;100897.56;4952464;28;19923;-78
2021/12/11 12:01:46;;;;;;;;;;;;;;;3.55;91.27;100893.91;4928560;28;19904;-78
2021/12/11 12:04:15;;;;;;;;;;;;;;;3.53;91.22;100905.41;4961235;28;19916;-78
2021/12/11 12:06:40;;;;;;;;;;;;;;;3.58;91.83;100905.97;4953759;28;20400;-77
2021/12/11 12:09:07;;;;;;;;;;;;;;;3.60;91.74;100898.88;4925822;28;19912;-77
2021/12/11 12:11:34;;;;;;;;;;;;;;;3.58;91.65;100900.72;4923597;28;19918;-77
2021/12/11 12:14:00;;;;;;;;;;;;;;;3.56;91.55;100905.22;4904560;28;19912;-78
2021/12/11 12:16:25;;;;;;;;;;;;;;;3.60;91.40;100909.34;4908913;28;20354;-79
2021/12/11 12:18:50;;;;;;;;;;;;;;;3.64;91.28;100900.38;4919880;28;19911;-78
2021/12/11 12:21:16;;;;;;;;;;;;;;;3.70;91.33;100914.91;4958893;28;19953;-80
2021/12/11 12:23:41;;;;;;;;;;;;;;;3.82;90.91;100914.19;4959929;28;20013;-79
2021/12/11 12:26:08;;;;;;;;;;;;;;;3.76;90.90;100906.69;4970166;28;20772;-78
2021/12/11 12:28:33;;;;;;;;;;;;;;;3.67;91.15;100905.44;4953255;28;20435;-79
2021/12/11 12:31:06;;;;;;;;;;;;;;;3.75;91.49;100923.31;4936349;28;20009;-78
2021/12/11 12:33:31;;;;;;;;;;;;;;;3.80;91.61;100925.69;4921211;28;20363;-79
2021/12/11 12:35:57;;;;;;;;;;;;;;;3.83;91.22;100925.50;4927580;28;19969;-80
2021/12/11 12:38:22;;;;;;;;;;;;;;;3.82;91.12;100926.41;4914460;28;19920;-77
2021/12/11 12:41:17;;;;;;;;;;;;;;;3.88;91.33;100934.78;4926627;28;19931;-77
2021/12/11 12:46:12;;;;;;;;;;;;;;;3.84;91.78;100932.44;4964926;28;19969;-77
2021/12/11 12:48:37;;;;;;;;;;;;;;;3.86;92.07;100935.78;4982210;28;20152;-76
2021/12/11 12:51:03;;;;;;;;;;;;;;;3.89;92.38;100946.06;4980898;28;19904;-79
2021/12/11 12:53:34;;;;;;;;;;;;;;;3.99;92.00;100944.63;4980709;28;20325;-77
2021/12/11 12:56:02;;;;;;;;;;;;;;;3.96;92.65;100947.41;4980784;28;19933;-77
2021/12/11 12:58:38;;;;;;;;;;;;;;;3.95;93.08;100945.75;5007254;28;20199;-78
2021/12/11 13:01:04;;;;;;;;;;;;;;;3.98;92.12;100949.94;4998072;28;20398;-78
2021/12/11 13:03:31;;;;;;;;;;;;;;;3.98;92.18;100948.16;4995671;28;20254;-77
2021/12/11 13:05:57;;;;;;;;;;;;;;;3.99;92.07;100949.88;4963005;28;20325;-78
2021/12/11 13:08:24;;;;;;;;;;;;;;;4.03;91.81;100948.72;4960407;28;19908;-78